createdAt,value
2018-12-10T00:00:14.586Z,2.30
2018-12-10T00:02:46.368Z,2.37
2018-12-10T00:05:13.651Z,2.10
2018-12-10T00:07:40.708Z,2.43
2018-12-10T00:10:07.889Z,2.47
2018-12-10T00:12:34.948Z,1.80
2018-12-10T00:15:02.114Z,2.33
2018-12-10T00:17:29.201Z,2.10
2018-12-10T00:19:56.278Z,2.40
2018-12-10T00:22:23.344Z,2.27
2018-12-10T00:24:50.400Z,2.23
2018-12-10T00:27:17.462Z,2.57
2018-12-10T00:29:44.535Z,2.27
2018-12-10T00:32:11.767Z,2.43
2018-12-10T00:34:38.819Z,2.40
2018-12-10T00:37:05.985Z,2.30
2018-12-10T00:39:33.201Z,2.53
2018-12-10T00:42:00.277Z,1.80
2018-12-10T00:44:27.338Z,2.33
2018-12-10T00:46:54.516Z,2.53
2018-12-10T00:49:21.580Z,2.10
2018-12-10T00:51:48.854Z,2.80
2018-12-10T00:54:15.915Z,2.43
2018-12-10T00:56:43.206Z,2.30
2018-12-10T00:59:10.278Z,2.87
2018-12-10T01:01:37.348Z,2.37
2018-12-10T01:04:04.926Z,2.43
2018-12-10T01:06:32.219Z,2.10
2018-12-10T01:08:59.398Z,2.00
2018-12-10T01:11:26.457Z,2.00
2018-12-10T01:13:53.517Z,2.10
2018-12-10T01:16:20.698Z,2.03
2018-12-10T01:18:47.776Z,2.20
2018-12-10T01:21:14.952Z,1.93
2018-12-10T01:23:42.032Z,2.03
2018-12-10T01:26:09.234Z,1.50
2018-12-10T01:28:36.299Z,1.40
2018-12-10T01:31:03.477Z,1.47
2018-12-10T01:33:30.598Z,1.80
2018-12-10T01:35:57.642Z,1.67
2018-12-10T01:38:24.694Z,1.87
2018-12-10T01:40:51.759Z,1.80
2018-12-10T01:43:18.935Z,1.50
2018-12-10T01:45:46.114Z,1.37
2018-12-10T01:48:13.222Z,1.87
2018-12-10T01:50:40.290Z,1.47
2018-12-10T01:53:07.359Z,1.30
2018-12-10T01:55:34.532Z,1.67
2018-12-10T01:58:01.590Z,1.50
2018-12-10T02:00:28.775Z,1.47
2018-12-10T02:02:56.759Z,1.43
2018-12-10T02:05:23.933Z,1.30
2018-12-10T02:07:51.018Z,1.40
2018-12-10T02:10:18.159Z,1.17
2018-12-10T02:12:45.238Z,1.23
2018-12-10T02:15:12.515Z,1.10
2018-12-10T02:17:39.593Z,1.30
2018-12-10T02:20:06.913Z,1.40
2018-12-10T02:22:33.995Z,1.40
2018-12-10T02:25:01.077Z,1.40
2018-12-10T02:27:28.140Z,1.47
2018-12-10T02:29:55.208Z,1.53
2018-12-10T02:32:22.267Z,1.50
2018-12-10T02:34:49.328Z,1.20
2018-12-10T02:37:16.386Z,1.30
2018-12-10T02:39:43.451Z,1.30
2018-12-10T02:42:10.625Z,1.33
2018-12-10T02:44:37.801Z,1.90
2018-12-10T02:47:05.105Z,1.50
2018-12-10T02:49:32.182Z,1.47
2018-12-10T02:52:01.677Z,1.60
2018-12-10T02:54:28.459Z,1.90
2018-12-10T02:56:55.533Z,1.50
2018-12-10T02:59:22.706Z,1.50
2018-12-10T03:01:49.762Z,2.00
2018-12-10T03:04:16.830Z,1.70
2018-12-10T03:06:44.017Z,1.80
2018-12-10T03:09:11.085Z,1.93
2018-12-10T03:11:38.355Z,1.73
2018-12-10T03:14:05.648Z,1.70
2018-12-10T03:16:32.705Z,1.73
2018-12-10T03:18:59.762Z,1.73
2018-12-10T03:21:26.822Z,1.80
2018-12-10T03:23:53.934Z,1.93
2018-12-10T03:26:20.997Z,2.00
2018-12-10T03:28:48.063Z,1.80
2018-12-10T03:31:15.138Z,2.00
2018-12-10T03:33:42.318Z,1.97
2018-12-10T03:36:09.488Z,2.10
2018-12-10T03:38:36.535Z,1.70
2018-12-10T03:41:04.219Z,2.03
2018-12-10T03:43:31.278Z,2.10
2018-12-10T03:45:58.338Z,2.03
2018-12-10T03:48:25.393Z,1.90
2018-12-10T03:50:52.459Z,2.30
2018-12-10T03:53:19.521Z,2.70
2018-12-10T03:55:46.706Z,2.13
2018-12-10T03:58:13.769Z,2.50
2018-12-10T04:00:40.947Z,2.60
2018-12-10T04:03:08.010Z,2.50
2018-12-10T04:05:35.066Z,2.93
2018-12-10T04:08:02.462Z,2.20
2018-12-10T04:10:29.523Z,2.47
2018-12-10T04:12:56.597Z,2.50
2018-12-10T04:15:23.774Z,2.67
2018-12-10T04:17:50.959Z,2.37
2018-12-10T04:20:18.139Z,2.30
2018-12-10T04:22:45.211Z,2.45
2018-12-10T04:25:12.280Z,2.20
2018-12-10T04:27:39.344Z,2.10
2018-12-10T04:30:06.645Z,1.80
2018-12-10T04:32:33.754Z,2.53
2018-12-10T04:35:00.829Z,2.10
2018-12-10T04:37:27.993Z,1.80
2018-12-10T04:39:55.050Z,1.80
2018-12-10T04:42:22.160Z,1.70
2018-12-10T04:44:49.227Z,2.07
2018-12-10T04:47:16.343Z,1.80
2018-12-10T04:49:43.524Z,1.77
2018-12-10T04:52:10.585Z,2.43
2018-12-10T04:54:38.450Z,2.17
2018-12-10T04:57:05.617Z,2.00
2018-12-10T04:59:32.797Z,2.10
2018-12-10T05:01:59.862Z,2.20
2018-12-10T05:04:26.915Z,2.33
2018-12-10T05:06:53.962Z,1.93
2018-12-10T05:09:21.026Z,1.90
2018-12-10T05:11:48.106Z,2.37
2018-12-10T05:14:15.181Z,2.13
2018-12-10T05:16:42.369Z,2.03
2018-12-10T05:19:09.546Z,2.30
2018-12-10T05:21:36.766Z,2.13
2018-12-10T05:24:03.982Z,2.20
2018-12-10T05:26:31.043Z,2.10
2018-12-10T05:28:58.115Z,2.73
2018-12-10T05:31:25.294Z,2.20
2018-12-10T05:33:52.359Z,2.60
2018-12-10T05:36:19.414Z,2.00
2018-12-10T05:38:46.578Z,1.83
2018-12-10T05:41:13.747Z,2.87
2018-12-10T05:43:40.813Z,2.30
2018-12-10T05:46:07.890Z,2.00
2018-12-10T05:48:52.347Z,2.37
2018-12-10T05:51:19.602Z,2.17
2018-12-10T05:53:46.846Z,2.37
2018-12-10T05:56:14.086Z,1.90
2018-12-10T05:58:41.319Z,2.27
2018-12-10T06:01:08.590Z,2.10
2018-12-10T06:03:35.822Z,2.13
2018-12-10T06:06:03.179Z,2.33
2018-12-10T06:08:30.446Z,1.90
2018-12-10T06:10:57.670Z,2.50
2018-12-10T06:13:24.903Z,2.37
2018-12-10T06:15:52.123Z,2.60
2018-12-10T06:18:19.434Z,2.20
2018-12-10T06:20:46.698Z,2.10
2018-12-10T06:23:13.932Z,1.77
2018-12-10T06:25:41.390Z,1.90
2018-12-10T06:28:08.627Z,1.90
2018-12-10T06:30:35.859Z,1.77
2018-12-10T06:33:03.227Z,1.92
2018-12-10T06:35:30.459Z,1.90
2018-12-10T06:37:57.680Z,1.70
2018-12-10T06:40:24.914Z,1.60
2018-12-10T06:42:52.149Z,1.47
2018-12-10T06:45:19.375Z,1.40
2018-12-10T06:47:46.611Z,1.60
2018-12-10T06:50:13.862Z,1.50
2018-12-10T06:52:41.123Z,1.80
2018-12-10T06:55:08.478Z,1.90
2018-12-10T06:57:35.759Z,2.27
2018-12-10T07:00:03.603Z,2.20
2018-12-10T07:02:30.834Z,2.50
2018-12-10T07:04:58.186Z,2.70
2018-12-10T07:07:25.539Z,2.30
2018-12-10T07:09:52.777Z,2.13
2018-12-10T07:12:20.007Z,1.90
2018-12-10T07:14:47.263Z,2.00
2018-12-10T07:17:14.502Z,2.20
2018-12-10T07:19:41.737Z,2.00
2018-12-10T07:22:09.221Z,1.87
2018-12-10T07:24:36.462Z,2.00
2018-12-10T07:27:03.830Z,1.90
2018-12-10T07:29:31.083Z,1.80
2018-12-10T07:31:58.327Z,1.80
2018-12-10T07:34:25.558Z,1.97
2018-12-10T07:36:52.781Z,1.50
2018-12-10T07:39:19.999Z,1.50
2018-12-10T07:41:47.254Z,1.60
2018-12-10T07:44:14.483Z,1.60
2018-12-10T07:46:41.718Z,1.80
2018-12-10T07:49:08.978Z,2.10
2018-12-10T07:51:36.280Z,2.00
2018-12-10T07:54:03.635Z,2.00
2018-12-10T07:56:30.983Z,2.30
2018-12-10T07:58:58.255Z,2.37
2018-12-10T08:01:25.495Z,2.50
2018-12-10T08:03:52.722Z,5.90
2018-12-10T08:06:19.982Z,3.10
2018-12-10T08:08:47.226Z,1.60
2018-12-10T08:11:14.467Z,1.33
2018-12-10T08:13:41.715Z,1.30
2018-12-10T08:16:08.955Z,2.17
2018-12-10T08:18:36.246Z,2.37
2018-12-10T08:21:03.735Z,2.20
2018-12-10T08:23:31.062Z,3.60
2018-12-10T08:25:58.542Z,2.20
2018-12-10T08:28:25.815Z,1.75
2018-12-10T08:30:53.067Z,2.27
2018-12-10T08:33:20.340Z,2.47
2018-12-10T08:35:47.603Z,2.30
2018-12-10T08:38:14.851Z,2.40
2018-12-10T08:40:42.074Z,2.63
2018-12-10T08:43:09.297Z,2.50
2018-12-10T08:45:36.483Z,3.05
2018-12-10T08:48:03.672Z,2.50
2018-12-10T08:50:30.849Z,2.60
2018-12-10T08:52:58.127Z,2.90
2018-12-10T08:55:25.326Z,2.58
2018-12-10T08:57:52.486Z,2.45
2018-12-10T09:00:19.579Z,2.25
2018-12-10T09:02:46.767Z,3.20
2018-12-10T09:05:13.970Z,2.70
2018-12-10T09:07:41.178Z,2.80
2018-12-10T09:10:08.390Z,2.90
2018-12-10T09:12:35.594Z,3.20
2018-12-10T09:15:03.331Z,3.20
2018-12-10T09:17:30.523Z,3.40
2018-12-10T09:19:57.603Z,4.47
2018-12-10T09:22:24.679Z,4.70
2018-12-10T09:24:51.743Z,5.63
2018-12-10T09:27:18.928Z,5.87
2018-12-10T09:29:46.257Z,6.97
2018-12-10T09:32:13.366Z,7.30
2018-12-10T09:34:40.583Z,6.73
2018-12-10T09:37:07.752Z,6.90
2018-12-10T09:39:34.794Z,5.83
2018-12-10T09:42:02.083Z,7.00
2018-12-10T09:44:29.280Z,7.47
2018-12-10T09:46:59.067Z,6.83
2018-12-10T09:49:25.531Z,6.53
2018-12-10T09:51:52.714Z,7.13
2018-12-10T09:54:19.855Z,7.57
2018-12-10T09:56:47.044Z,7.47
2018-12-10T09:59:14.311Z,7.33
2018-12-10T10:01:41.698Z,7.87
2018-12-10T10:04:08.790Z,6.90
2018-12-10T10:06:35.966Z,7.50
2018-12-10T10:09:05.272Z,8.50
2018-12-10T10:11:32.445Z,8.60
2018-12-10T10:13:59.618Z,9.27
2018-12-10T10:16:26.698Z,8.60
2018-12-10T10:18:53.771Z,8.03
2018-12-10T10:21:20.931Z,7.87
2018-12-10T10:23:48.215Z,8.20
2018-12-10T10:26:15.271Z,6.87
2018-12-10T10:28:42.322Z,6.97
2018-12-10T10:31:09.500Z,6.90
2018-12-10T10:33:36.908Z,5.90
2018-12-10T10:36:04.199Z,5.33
2018-12-10T10:38:31.255Z,5.07
2018-12-10T10:40:58.326Z,4.70
2018-12-10T10:43:25.409Z,5.20
2018-12-10T10:45:52.726Z,4.30
2018-12-10T10:48:19.997Z,4.40
2018-12-10T10:50:47.074Z,4.90
2018-12-10T10:53:14.181Z,4.70
2018-12-10T10:55:41.327Z,4.53
2018-12-10T10:58:08.425Z,4.37
2018-12-10T11:00:41.749Z,4.37
2018-12-10T11:03:41.759Z,4.37
2018-12-10T11:06:08.931Z,4.83
2018-12-10T11:08:36.002Z,4.13
2018-12-10T11:11:03.179Z,4.13
2018-12-10T11:13:30.367Z,4.53
2018-12-10T11:15:57.662Z,4.50
2018-12-10T11:18:24.878Z,5.20
2018-12-10T11:20:52.077Z,4.40
2018-12-10T11:23:19.135Z,4.00
2018-12-10T11:25:46.428Z,4.00
2018-12-10T11:28:13.599Z,3.83
2018-12-10T11:30:40.775Z,3.67
2018-12-10T11:33:07.938Z,4.00
2018-12-10T11:35:35.209Z,3.80
2018-12-10T11:38:02.294Z,3.53
2018-12-10T11:40:29.351Z,3.20
2018-12-10T11:42:56.599Z,3.20
2018-12-10T11:45:24.319Z,3.40
2018-12-10T11:47:51.620Z,4.20
2018-12-10T11:50:18.927Z,2.30
2018-12-10T11:52:46.236Z,2.23
2018-12-10T11:55:13.418Z,2.60
2018-12-10T11:57:40.480Z,2.17
2018-12-10T12:00:09.735Z,2.10
2018-12-10T12:02:37.019Z,2.97
2018-12-10T12:05:04.861Z,2.50
2018-12-10T12:07:32.055Z,2.20
2018-12-10T12:09:59.118Z,2.73
2018-12-10T12:12:26.298Z,2.63
2018-12-10T12:14:53.467Z,2.73
2018-12-10T12:17:20.563Z,2.40
2018-12-10T12:19:47.858Z,3.00
2018-12-10T12:22:15.046Z,2.70
2018-12-10T12:24:42.225Z,2.27
2018-12-10T12:27:09.428Z,2.30
2018-12-10T12:29:36.530Z,2.50
2018-12-10T12:32:04.510Z,3.30
2018-12-10T12:34:31.796Z,2.90
2018-12-10T12:36:58.872Z,2.30
2018-12-10T12:39:26.052Z,2.40
2018-12-10T12:41:53.139Z,2.50
2018-12-10T12:44:20.236Z,1.93
2018-12-10T12:46:47.414Z,2.30
2018-12-10T12:49:14.490Z,2.50
2018-12-10T12:51:41.566Z,2.50
2018-12-10T12:54:08.631Z,3.20
2018-12-10T12:56:35.916Z,2.10
2018-12-10T12:59:04.527Z,2.13
2018-12-10T13:01:31.951Z,2.43
2018-12-10T13:03:59.175Z,2.27
2018-12-10T13:06:26.247Z,2.20
2018-12-10T13:08:53.351Z,2.30
2018-12-10T13:11:20.530Z,2.50
2018-12-10T13:13:47.599Z,2.07
2018-12-10T13:16:14.870Z,2.13
2018-12-10T13:18:41.942Z,1.90
2018-12-10T13:21:09.110Z,2.67
2018-12-10T13:23:36.395Z,1.97
2018-12-10T13:26:03.667Z,2.00
2018-12-10T13:28:30.850Z,1.90
2018-12-10T13:30:57.915Z,2.00
2018-12-10T13:33:25.092Z,2.03
2018-12-10T13:35:52.148Z,2.10
2018-12-10T13:38:19.202Z,1.90
2018-12-10T13:40:46.302Z,1.97
2018-12-10T13:43:13.490Z,2.00
2018-12-10T13:45:40.774Z,1.77
2018-12-10T13:48:07.959Z,1.80
2018-12-10T13:50:35.023Z,2.43
2018-12-10T13:53:02.107Z,2.07
2018-12-10T13:55:29.216Z,1.67
2018-12-10T13:57:56.279Z,2.00
2018-12-10T14:00:23.623Z,1.77
2018-12-10T14:02:50.793Z,2.07
2018-12-10T14:05:17.978Z,2.30
2018-12-10T14:07:48.071Z,1.70
2018-12-10T14:10:14.352Z,2.23
2018-12-10T14:12:41.442Z,1.80
2018-12-10T14:15:09.043Z,1.70
2018-12-10T14:17:36.310Z,2.27
2018-12-10T14:20:04.831Z,2.17
2018-12-10T14:22:32.189Z,2.13
2018-12-10T14:24:59.482Z,2.67
2018-12-10T14:27:26.768Z,2.00
2018-12-10T14:29:54.058Z,2.13
2018-12-10T14:32:21.355Z,2.10
2018-12-10T14:34:48.425Z,1.97
2018-12-10T14:37:15.605Z,2.00
2018-12-10T14:39:42.891Z,2.00
2018-12-10T14:42:21.103Z,1.87
2018-12-10T14:44:48.222Z,1.60
2018-12-10T14:47:15.402Z,1.90
2018-12-10T14:49:42.700Z,1.60
2018-12-10T14:52:09.899Z,2.00
2018-12-10T14:54:37.086Z,1.97
2018-12-10T14:57:04.392Z,2.00
2018-12-10T14:59:31.478Z,1.70
2018-12-10T15:01:58.654Z,1.60
2018-12-10T15:04:25.935Z,1.70
2018-12-10T15:06:53.139Z,1.50
2018-12-10T15:09:20.216Z,1.87
2018-12-10T15:11:47.283Z,1.80
2018-12-10T15:14:14.352Z,1.80
2018-12-10T15:16:41.538Z,1.70
2018-12-10T15:19:08.827Z,2.10
2018-12-10T15:21:36.015Z,2.20
2018-12-10T15:24:03.303Z,2.20
2018-12-10T15:26:30.493Z,1.90
2018-12-10T15:28:57.571Z,1.70
2018-12-10T15:31:24.658Z,2.30
2018-12-10T15:33:51.842Z,1.97
2018-12-10T15:36:19.019Z,1.97
2018-12-10T15:38:46.079Z,2.00
2018-12-10T15:41:13.251Z,1.80
2018-12-10T15:43:40.345Z,1.97
2018-12-10T15:46:07.524Z,1.83
2018-12-10T15:48:34.586Z,1.80
2018-12-10T15:51:01.644Z,2.30
2018-12-10T15:53:28.714Z,1.87
2018-12-10T15:55:55.782Z,1.97
2018-12-10T15:58:23.066Z,1.87
2018-12-10T16:00:50.446Z,1.70
2018-12-10T16:03:18.034Z,1.90
2018-12-10T16:05:45.103Z,1.90
2018-12-10T16:08:12.402Z,1.90
2018-12-10T16:10:39.596Z,1.90
2018-12-10T16:13:06.670Z,1.90
2018-12-10T16:15:33.835Z,2.17
2018-12-10T16:18:01.007Z,2.80
2018-12-10T16:20:28.199Z,2.20
2018-12-10T16:22:55.482Z,2.40
2018-12-10T16:25:22.562Z,2.43
2018-12-10T16:27:49.862Z,1.97
2018-12-10T16:30:17.950Z,2.10
2018-12-10T16:32:45.262Z,2.70
2018-12-10T16:35:12.555Z,1.97
2018-12-10T16:37:39.614Z,2.23
2018-12-10T16:40:06.869Z,2.20
2018-12-10T16:42:34.080Z,2.80
2018-12-10T16:45:01.162Z,3.37
2018-12-10T16:47:28.420Z,2.40
2018-12-10T16:49:55.554Z,2.10
2018-12-10T16:52:22.750Z,2.47
2018-12-10T16:54:49.824Z,2.23
2018-12-10T16:57:17.015Z,2.43
2018-12-10T16:59:44.155Z,2.17
2018-12-10T17:02:11.447Z,2.80
2018-12-10T17:04:38.514Z,2.50
2018-12-10T17:07:05.818Z,2.70
2018-12-10T17:09:33.187Z,2.83
2018-12-10T17:12:00.462Z,2.80
2018-12-10T17:14:27.663Z,2.70
2018-12-10T17:16:54.844Z,3.43
2018-12-10T17:19:22.135Z,3.10
2018-12-10T17:21:49.429Z,2.97
2018-12-10T17:24:16.508Z,3.17
2018-12-10T17:26:43.686Z,3.63
2018-12-10T17:29:10.910Z,3.17
2018-12-10T17:31:38.192Z,3.43
2018-12-10T17:34:05.375Z,3.00
2018-12-10T17:36:32.567Z,3.50
2018-12-10T17:38:59.723Z,3.70
2018-12-10T17:41:27.059Z,3.30
2018-12-10T17:43:54.198Z,4.27
2018-12-10T17:46:21.497Z,3.97
2018-12-10T17:48:48.571Z,3.80
2018-12-10T17:51:15.765Z,4.03
2018-12-10T17:53:43.378Z,3.83
2018-12-10T17:56:10.542Z,3.57
2018-12-10T17:58:37.633Z,3.40
2018-12-10T18:01:04.823Z,3.87
2018-12-10T18:03:32.011Z,3.85
2018-12-10T18:05:59.087Z,4.37
2018-12-10T18:08:26.389Z,4.10
2018-12-10T18:10:53.591Z,3.95
2018-12-10T18:13:20.688Z,3.72
2018-12-10T18:15:47.775Z,4.00
2018-12-10T18:18:14.955Z,3.98
2018-12-10T18:20:42.130Z,3.90
2018-12-10T18:23:09.458Z,4.33
2018-12-10T18:25:36.664Z,4.37
2018-12-10T18:28:04.183Z,4.25
2018-12-10T18:30:31.796Z,4.10
2018-12-10T18:32:59.125Z,3.75
2018-12-10T18:35:26.208Z,4.05
2018-12-10T18:37:53.274Z,3.15
2018-12-10T18:40:20.467Z,3.55
2018-12-10T18:42:47.555Z,4.00
2018-12-10T18:45:16.654Z,3.70
2018-12-10T18:47:43.775Z,4.58
2018-12-10T18:50:11.016Z,5.22
2018-12-10T18:52:38.203Z,5.55
2018-12-10T18:55:05.505Z,6.80
2018-12-10T18:57:32.563Z,6.83
2018-12-10T18:59:59.806Z,6.03
2018-12-10T19:02:26.987Z,5.65
2018-12-10T19:04:54.247Z,5.55
2018-12-10T19:07:21.478Z,5.30
2018-12-10T19:09:48.622Z,4.70
2018-12-10T19:12:15.811Z,4.83
2018-12-10T19:14:42.894Z,4.55
2018-12-10T19:17:09.987Z,4.25
2018-12-10T19:19:37.162Z,4.75
2018-12-10T19:22:04.283Z,4.50
2018-12-10T19:24:31.542Z,4.85
2018-12-10T19:26:58.736Z,5.00
2018-12-10T19:29:25.813Z,5.28
2018-12-10T19:31:52.978Z,5.70
2018-12-10T19:34:20.056Z,5.92
2018-12-10T19:36:47.130Z,5.65
2018-12-10T19:39:14.323Z,5.85
2018-12-10T19:41:41.395Z,5.03
2018-12-10T19:44:08.588Z,5.72
2018-12-10T19:46:35.728Z,5.15
2018-12-10T19:49:03.057Z,5.72
2018-12-10T19:51:30.239Z,6.85
2018-12-10T19:53:57.323Z,5.17
2018-12-10T19:56:24.514Z,5.67
2018-12-10T19:58:51.711Z,6.28
2018-12-10T20:01:18.896Z,5.45
2018-12-10T20:03:46.622Z,4.97
2018-12-10T20:06:20.327Z,5.10
2018-12-10T20:08:47.638Z,5.20
2018-12-10T20:11:14.919Z,5.40
2018-12-10T20:13:43.310Z,5.37
2018-12-10T20:16:10.628Z,5.65
2018-12-10T20:18:37.961Z,6.05
2018-12-10T20:21:05.290Z,5.20
2018-12-10T20:23:33.046Z,5.58
2018-12-10T20:26:00.133Z,5.90
2018-12-10T20:28:27.336Z,5.60
2018-12-10T20:30:54.519Z,6.35
2018-12-10T20:33:21.719Z,6.20
2018-12-10T20:35:49.025Z,6.90
2018-12-10T20:38:16.183Z,5.65
2018-12-10T20:40:43.360Z,4.95
2018-12-10T20:43:10.431Z,5.40
2018-12-10T20:45:37.611Z,5.28
2018-12-10T20:48:04.795Z,5.33
2018-12-10T20:50:31.979Z,5.35
2018-12-10T20:52:59.040Z,5.85
2018-12-10T20:55:26.232Z,5.50
2018-12-10T20:57:53.307Z,6.00
2018-12-10T21:00:20.595Z,5.70
2018-12-10T21:02:47.714Z,7.30
2018-12-10T21:05:15.003Z,6.05
2018-12-10T21:07:42.086Z,6.03
2018-12-10T21:10:09.403Z,6.20
2018-12-10T21:12:36.708Z,6.20
2018-12-10T21:15:05.011Z,5.70
2018-12-10T21:17:32.298Z,6.00
2018-12-10T21:19:59.389Z,5.53
2018-12-10T21:22:26.473Z,5.00
2018-12-10T21:24:53.808Z,5.50
2018-12-10T21:27:20.868Z,4.78
2018-12-10T21:29:48.065Z,5.08
2018-12-10T21:32:15.147Z,5.30
2018-12-10T21:34:42.342Z,5.25
2018-12-10T21:37:09.450Z,5.37
2018-12-10T21:39:36.627Z,5.08
2018-12-10T21:42:03.863Z,5.80
2018-12-10T21:44:31.151Z,5.28
2018-12-10T21:46:58.229Z,5.75
2018-12-10T21:49:25.439Z,5.58
2018-12-10T21:51:52.663Z,5.37
2018-12-10T21:54:19.851Z,6.42
2018-12-10T21:56:46.930Z,5.62
2018-12-10T21:59:14.019Z,6.47
2018-12-10T22:01:41.250Z,5.33
2018-12-10T22:04:08.439Z,6.65
2018-12-10T22:06:35.678Z,6.25
2018-12-10T22:09:04.538Z,5.20
2018-12-10T22:11:31.602Z,6.33
2018-12-10T22:13:58.674Z,6.03
2018-12-10T22:16:25.786Z,6.22
2018-12-10T22:18:52.994Z,5.97
2018-12-10T22:21:20.202Z,6.03
2018-12-10T22:23:47.270Z,6.33
2018-12-10T22:26:14.335Z,6.00
2018-12-10T22:28:41.424Z,6.33
2018-12-10T22:31:08.499Z,6.53
2018-12-10T22:33:35.674Z,6.60
2018-12-10T22:36:02.882Z,6.75
2018-12-10T22:38:30.049Z,7.83
2018-12-10T22:40:57.214Z,6.85
2018-12-10T22:43:24.279Z,6.90
2018-12-10T22:45:51.347Z,7.08
2018-12-10T22:48:18.420Z,6.67
2018-12-10T22:50:45.745Z,7.25
2018-12-10T22:53:12.902Z,6.92
2018-12-10T22:55:39.972Z,7.17
2018-12-10T22:58:07.044Z,6.37
2018-12-10T23:00:39.970Z,5.92
2018-12-10T23:03:07.272Z,5.95
2018-12-10T23:05:34.442Z,6.60
2018-12-10T23:08:01.611Z,6.62
2018-12-10T23:10:28.694Z,6.90
2018-12-10T23:12:55.774Z,6.05
2018-12-10T23:15:22.846Z,6.58
2018-12-10T23:17:50.164Z,6.45
2018-12-10T23:20:17.869Z,6.60
2018-12-10T23:22:45.020Z,6.20
2018-12-10T23:25:12.203Z,6.47
2018-12-10T23:27:39.271Z,6.42
2018-12-10T23:30:06.606Z,6.22
2018-12-10T23:32:33.674Z,7.20
2018-12-10T23:35:00.862Z,6.62
2018-12-10T23:37:27.930Z,6.90
2018-12-10T23:39:54.987Z,6.85
2018-12-10T23:42:22.194Z,6.37
2018-12-10T23:44:54.957Z,5.95
2018-12-10T23:47:22.134Z,5.70
2018-12-10T23:49:49.326Z,6.33
2018-12-10T23:52:16.531Z,6.72
2018-12-10T23:54:43.618Z,5.65
2018-12-10T23:57:10.814Z,5.53
2018-12-10T23:59:38.002Z,5.87
